createdAt,value
2023-04-15T00:02:20.813Z,1.88
2023-04-15T00:04:50.171Z,1.90
2023-04-15T00:07:18.054Z,1.90
2023-04-15T00:09:46.083Z,1.85
2023-04-15T00:12:13.740Z,1.58
2023-04-15T00:14:41.642Z,1.70
2023-04-15T00:17:09.322Z,1.83
2023-04-15T00:19:37.008Z,1.83
2023-04-15T00:22:06.202Z,2.00
2023-04-15T00:24:34.485Z,1.98
2023-04-15T00:27:02.208Z,1.90
2023-04-15T00:29:30.509Z,1.80
2023-04-15T00:31:58.302Z,1.90
2023-04-15T00:34:26.077Z,2.10
2023-04-15T00:36:53.748Z,1.63
2023-04-15T00:39:23.939Z,2.00
2023-04-15T00:41:51.739Z,1.90
2023-04-15T00:44:20.105Z,1.90
2023-04-15T00:46:48.688Z,1.90
2023-04-15T00:49:16.365Z,2.00
2023-04-15T00:51:44.789Z,2.20
2023-04-15T00:54:12.930Z,1.90
2023-04-15T00:56:42.014Z,2.20
2023-04-15T00:59:10.422Z,1.90
2023-04-15T01:01:38.971Z,2.13
2023-04-15T01:04:06.943Z,2.15
2023-04-15T01:06:34.949Z,1.83
2023-04-15T01:09:03.438Z,1.90
2023-04-15T01:11:33.461Z,1.90
2023-04-15T01:14:02.853Z,1.75
2023-04-15T01:16:30.693Z,1.88
2023-04-15T01:18:58.719Z,1.92
2023-04-15T01:21:26.856Z,2.00
2023-04-15T01:23:56.922Z,2.00
2023-04-15T01:26:26.702Z,2.03
2023-04-15T01:28:54.585Z,1.98
2023-04-15T01:31:22.923Z,2.03
2023-04-15T01:33:50.667Z,2.20
2023-04-15T01:36:18.625Z,1.90
2023-04-15T01:38:46.413Z,2.10
2023-04-15T01:41:14.848Z,2.25
2023-04-15T01:43:43.878Z,1.88
2023-04-15T01:46:11.888Z,1.75
2023-04-15T01:48:39.617Z,2.20
2023-04-15T01:51:08.061Z,2.13
2023-04-15T01:53:35.778Z,2.10
2023-04-15T01:56:03.492Z,2.17
2023-04-15T01:58:31.446Z,2.50
2023-04-15T02:01:00.680Z,2.10
2023-04-15T02:03:29.899Z,2.22
2023-04-15T02:05:57.751Z,2.35
2023-04-15T02:08:25.364Z,2.33
2023-04-15T02:10:53.446Z,2.10
2023-04-15T02:13:21.116Z,2.00
2023-04-15T02:15:49.702Z,2.10
2023-04-15T02:18:18.739Z,2.20
2023-04-15T02:20:47.166Z,2.30
2023-04-15T02:23:15.786Z,2.47
2023-04-15T02:25:43.549Z,2.33
2023-04-15T02:28:21.807Z,2.25
2023-04-15T02:30:50.927Z,2.28
2023-04-15T02:33:20.207Z,2.20
2023-04-15T02:35:47.942Z,2.60
2023-04-15T02:38:17.892Z,2.65
2023-04-15T02:40:45.521Z,2.55
2023-04-15T02:43:13.465Z,2.70
2023-04-15T02:45:41.296Z,2.70
2023-04-15T02:48:08.936Z,2.80
2023-04-15T02:50:39.848Z,2.60
2023-04-15T02:53:07.806Z,2.58
2023-04-15T02:55:35.934Z,3.05
2023-04-15T02:58:03.702Z,2.65
2023-04-15T03:00:31.564Z,2.60
2023-04-15T03:03:00.458Z,2.88
2023-04-15T03:05:28.714Z,2.60
2023-04-15T03:07:57.820Z,2.50
2023-04-15T03:10:25.507Z,2.35
2023-04-15T03:12:53.289Z,2.40
2023-04-15T03:15:21.457Z,2.47
2023-04-15T03:17:49.711Z,2.80
2023-04-15T03:20:17.725Z,2.70
2023-04-15T03:22:45.392Z,2.50
2023-04-15T03:25:14.332Z,2.72
2023-04-15T03:27:43.102Z,2.38
2023-04-15T03:30:12.322Z,2.80
2023-04-15T03:32:40.149Z,2.78
2023-04-15T03:35:08.325Z,2.50
2023-04-15T03:37:36.031Z,2.38
2023-04-15T03:40:03.886Z,2.70
2023-04-15T03:42:32.896Z,2.63
2023-04-15T03:45:00.656Z,2.60
2023-04-15T03:47:28.340Z,2.90
2023-04-15T03:49:55.974Z,2.63
2023-04-15T03:52:23.603Z,3.05
2023-04-15T03:54:51.518Z,2.78
2023-04-15T03:57:19.217Z,2.63
2023-04-15T03:59:48.440Z,2.90
2023-04-15T04:02:16.321Z,2.70
2023-04-15T04:04:44.346Z,2.95
2023-04-15T04:07:16.718Z,3.38
2023-04-15T04:09:46.155Z,3.22
2023-04-15T04:12:14.709Z,3.25
2023-04-15T04:14:42.365Z,2.93
2023-04-15T04:17:11.688Z,3.00
2023-04-15T04:19:39.598Z,2.90
2023-04-15T04:22:07.326Z,3.03
2023-04-15T04:24:34.925Z,3.08
2023-04-15T04:27:02.574Z,2.90
2023-04-15T04:29:30.215Z,2.92
2023-04-15T04:31:57.867Z,2.83
2023-04-15T04:34:26.893Z,2.88
2023-04-15T04:36:54.766Z,3.28
2023-04-15T04:39:22.647Z,3.40
2023-04-15T04:41:52.206Z,3.38
2023-04-15T04:44:20.004Z,2.92
2023-04-15T04:46:47.731Z,3.27
2023-04-15T04:49:15.727Z,3.17
2023-04-15T04:51:45.336Z,2.77
2023-04-15T04:54:13.055Z,2.92
2023-04-15T04:56:40.976Z,3.08
2023-04-15T04:59:09.403Z,2.80
2023-04-15T05:01:37.249Z,3.00
2023-04-15T05:04:05.588Z,3.00
2023-04-15T05:06:33.689Z,3.30
2023-04-15T05:09:03.407Z,3.55
2023-04-15T05:11:31.382Z,3.30
2023-04-15T05:13:59.709Z,3.00
2023-04-15T05:16:27.336Z,3.10
2023-04-15T05:18:54.977Z,2.93
2023-04-15T05:21:22.707Z,3.00
2023-04-15T05:23:50.468Z,3.03
2023-04-15T05:26:19.676Z,3.00
2023-04-15T05:28:47.948Z,3.13
2023-04-15T05:31:15.683Z,3.30
2023-04-15T05:33:43.462Z,2.90
2023-04-15T05:36:12.200Z,2.97
2023-04-15T05:38:39.988Z,2.80
2023-04-15T05:41:07.678Z,3.20
2023-04-15T05:43:36.670Z,2.88
2023-04-15T05:46:06.656Z,2.90
2023-04-15T05:48:36.145Z,3.00
2023-04-15T05:51:04.013Z,2.90
2023-04-15T05:53:31.873Z,3.30
2023-04-15T05:55:59.633Z,3.03
2023-04-15T05:58:27.620Z,3.43
2023-04-15T06:00:56.806Z,3.17
2023-04-15T06:03:24.626Z,2.83
2023-04-15T06:05:52.548Z,2.78
2023-04-15T06:08:20.662Z,2.53
2023-04-15T06:10:48.470Z,2.75
2023-04-15T06:13:17.190Z,2.60
2023-04-15T06:15:44.972Z,2.60
2023-04-15T06:18:14.032Z,2.43
2023-04-15T06:20:41.741Z,2.42
2023-04-15T06:23:09.356Z,2.60
2023-04-15T06:25:37.277Z,2.47
2023-04-15T06:28:05.412Z,2.45
2023-04-15T06:30:33.157Z,2.80
2023-04-15T06:33:00.863Z,2.78
2023-04-15T06:35:29.900Z,2.53
2023-04-15T06:37:57.613Z,2.85
2023-04-15T06:40:25.425Z,2.35
2023-04-15T06:42:53.143Z,2.40
2023-04-15T06:45:20.755Z,2.35
2023-04-15T06:47:48.459Z,2.53
2023-04-15T06:50:16.252Z,2.40
2023-04-15T06:52:45.286Z,2.30
2023-04-15T06:55:13.199Z,2.17
2023-04-15T06:57:41.194Z,2.22
2023-04-15T07:00:11.502Z,2.10
2023-04-15T07:02:39.511Z,2.40
2023-04-15T07:05:08.513Z,2.40
2023-04-15T07:07:36.140Z,2.22
2023-04-15T07:10:06.034Z,2.75
2023-04-15T07:12:33.720Z,2.75
2023-04-15T07:15:01.513Z,2.90
2023-04-15T07:17:29.438Z,2.55
2023-04-15T07:19:57.095Z,2.92
2023-04-15T07:22:24.973Z,2.40
2023-04-15T07:24:52.685Z,2.58
2023-04-15T07:27:21.777Z,2.33
2023-04-15T07:29:51.473Z,2.20
2023-04-15T07:32:19.270Z,2.40
2023-04-15T07:34:47.057Z,2.10
2023-04-15T07:37:15.071Z,2.10
2023-04-15T07:39:42.795Z,2.00
2023-04-15T07:42:11.269Z,2.20
2023-04-15T07:44:40.479Z,2.30
2023-04-15T07:47:08.116Z,1.90
2023-04-15T07:49:36.430Z,2.00
2023-04-15T07:52:04.756Z,2.05
2023-04-15T07:54:32.482Z,2.60
2023-04-15T07:57:00.157Z,2.70
2023-04-15T07:59:30.068Z,2.70
2023-04-15T08:01:59.397Z,2.60
2023-04-15T08:04:27.678Z,2.72
2023-04-15T08:06:55.557Z,2.72
2023-04-15T08:09:23.434Z,2.90
2023-04-15T08:11:51.451Z,3.07
2023-04-15T08:14:19.423Z,3.60
2023-04-15T08:16:47.041Z,3.28
2023-04-15T08:19:16.093Z,3.60
2023-04-15T08:21:43.787Z,3.77
2023-04-15T08:24:11.574Z,3.90
2023-04-15T08:26:39.540Z,3.80
2023-04-15T08:29:07.392Z,3.97
2023-04-15T08:31:35.237Z,3.72
2023-04-15T08:34:03.612Z,4.13
2023-04-15T08:36:32.972Z,4.30
2023-04-15T08:39:02.208Z,4.40
2023-04-15T08:41:35.907Z,4.22
2023-04-15T08:44:06.169Z,4.25
2023-04-15T08:46:34.907Z,4.13
2023-04-15T08:49:05.856Z,4.32
2023-04-15T08:51:35.009Z,4.40
2023-04-15T08:54:03.534Z,4.22
2023-04-15T08:56:33.145Z,4.30
2023-04-15T08:59:01.530Z,4.43
2023-04-15T09:01:30.280Z,4.13
2023-04-15T09:03:59.939Z,4.35
2023-04-15T09:06:27.747Z,4.85
2023-04-15T09:08:57.486Z,4.53
2023-04-15T09:11:25.048Z,4.70
2023-04-15T09:13:52.689Z,5.20
2023-04-15T09:16:20.432Z,4.90
2023-04-15T09:18:48.091Z,4.50
2023-04-15T09:21:17.431Z,4.60
2023-04-15T09:23:57.858Z,4.90
2023-04-15T09:26:33.187Z,5.20
2023-04-15T09:29:06.695Z,5.30
2023-04-15T09:31:34.453Z,5.53
2023-04-15T09:34:02.828Z,5.55
2023-04-15T09:36:30.880Z,5.43
2023-04-15T09:39:01.142Z,5.32
2023-04-15T09:41:29.497Z,4.97
2023-04-15T09:43:57.179Z,5.20
2023-04-15T09:46:43.012Z,5.10
2023-04-15T09:49:11.770Z,4.97
2023-04-15T09:51:39.635Z,4.80
2023-04-15T09:54:08.837Z,5.03
2023-04-15T09:56:37.932Z,4.75
2023-04-15T09:59:06.949Z,5.00
2023-04-15T10:01:34.976Z,5.03
2023-04-15T10:04:05.318Z,5.00
2023-04-15T10:06:33.700Z,5.28
2023-04-15T10:09:02.161Z,4.85
2023-04-15T10:11:31.904Z,4.82
2023-04-15T10:14:00.086Z,4.45
2023-04-15T10:16:29.632Z,4.80
2023-04-15T10:18:58.568Z,5.10
2023-04-15T10:21:26.278Z,5.70
2023-04-15T10:23:54.472Z,5.50
2023-04-15T10:26:22.791Z,4.88
2023-04-15T10:28:53.512Z,5.70
2023-04-15T10:31:22.050Z,4.60
2023-04-15T10:33:50.752Z,4.20
2023-04-15T10:36:20.637Z,3.90
2023-04-15T10:38:48.340Z,3.70
2023-04-15T10:41:21.551Z,3.38
2023-04-15T10:43:53.538Z,3.67
2023-04-15T10:46:23.898Z,3.80
2023-04-15T10:48:53.122Z,4.40
2023-04-15T10:51:32.323Z,4.40
2023-04-15T10:54:01.159Z,4.53
2023-04-15T10:56:30.944Z,4.07
2023-04-15T10:59:02.324Z,4.63
2023-04-15T11:01:56.601Z,4.30
2023-04-15T11:04:58.109Z,4.15
2023-04-15T11:07:39.967Z,4.10
2023-04-15T11:10:49.173Z,4.00
2023-04-15T11:13:18.912Z,3.70
2023-04-15T11:15:51.974Z,4.22
2023-04-15T11:18:22.083Z,4.85
2023-04-15T11:20:52.218Z,4.43
2023-04-15T11:23:21.269Z,4.00
2023-04-15T11:25:49.466Z,3.90
2023-04-15T11:28:17.324Z,3.88
2023-04-15T11:30:45.371Z,3.67
2023-04-15T11:33:14.626Z,3.07
2023-04-15T11:35:42.691Z,3.03
2023-04-15T11:38:11.897Z,2.83
2023-04-15T11:40:40.966Z,2.78
2023-04-15T11:43:09.892Z,2.80
2023-04-15T11:45:38.586Z,2.85
2023-04-15T11:48:07.858Z,3.60
2023-04-15T11:50:38.230Z,3.50
2023-04-15T11:53:08.653Z,3.40
2023-04-15T11:55:44.703Z,3.20
2023-04-15T11:58:15.640Z,3.30
2023-04-15T12:00:48.904Z,3.77
2023-04-15T12:03:20.800Z,3.20
2023-04-15T12:06:07.916Z,3.30
2023-04-15T12:09:00.375Z,2.95
2023-04-15T12:11:37.073Z,3.30
2023-04-15T12:14:07.778Z,3.15
2023-04-15T12:16:47.978Z,3.38
2023-04-15T12:19:19.900Z,3.05
2023-04-15T12:21:51.429Z,3.10
2023-04-15T12:24:22.169Z,3.38
2023-04-15T12:26:51.747Z,3.80
2023-04-15T12:29:19.410Z,4.15
2023-04-15T12:31:51.749Z,3.90
2023-04-15T12:34:21.046Z,4.10
2023-04-15T12:36:50.104Z,3.30
2023-04-15T12:39:17.789Z,3.45
2023-04-15T12:41:45.516Z,3.15
2023-04-15T12:44:13.921Z,2.60
2023-04-15T12:46:41.937Z,2.63
2023-04-15T12:49:10.270Z,2.50
2023-04-15T12:51:38.017Z,2.20
2023-04-15T12:54:07.338Z,2.40
2023-04-15T12:56:35.196Z,2.13
2023-04-15T12:59:05.611Z,2.00
2023-04-15T13:01:33.240Z,2.15
2023-04-15T13:04:00.973Z,1.70
2023-04-15T13:06:29.156Z,1.52
2023-04-15T13:08:58.744Z,1.88
2023-04-15T13:11:30.830Z,1.90
2023-04-15T13:13:59.041Z,2.00
2023-04-15T13:16:26.784Z,1.90
2023-04-15T13:18:54.557Z,1.38
2023-04-15T13:21:22.310Z,1.38
2023-04-15T13:23:51.033Z,1.70
2023-04-15T13:26:18.784Z,1.60
2023-04-15T13:28:48.085Z,1.48
2023-04-15T13:31:15.836Z,1.50
2023-04-15T13:33:43.515Z,1.73
2023-04-15T13:36:11.456Z,1.38
2023-04-15T13:38:39.171Z,1.52
2023-04-15T13:41:07.018Z,1.30
2023-04-15T13:43:34.676Z,1.85
2023-04-15T13:46:03.999Z,1.38
2023-04-15T13:48:31.689Z,1.25
2023-04-15T13:51:00.654Z,1.10
2023-04-15T13:53:38.953Z,0.93
2023-04-15T13:56:07.875Z,0.80
2023-04-15T13:58:35.743Z,0.80
2023-04-15T14:01:06.135Z,0.70
2023-04-15T14:03:35.054Z,0.60
2023-04-15T14:06:02.969Z,0.80
2023-04-15T14:08:31.182Z,1.40
2023-04-15T14:10:59.292Z,1.80
2023-04-15T14:13:27.185Z,2.15
2023-04-15T14:15:54.922Z,1.27
2023-04-15T14:18:24.114Z,0.80
2023-04-15T14:20:52.408Z,0.57
2023-04-15T14:23:20.328Z,0.73
2023-04-15T14:25:48.500Z,1.10
2023-04-15T14:28:17.170Z,2.17
2023-04-15T14:30:45.240Z,1.38
2023-04-15T14:33:13.199Z,3.40
2023-04-15T14:35:42.261Z,1.43
2023-04-15T14:38:11.166Z,1.40
2023-04-15T14:40:39.351Z,1.83
2023-04-15T14:43:07.262Z,2.50
2023-04-15T14:45:36.370Z,2.10
2023-04-15T14:48:04.500Z,3.80
2023-04-15T14:50:32.324Z,1.20
2023-04-15T14:53:01.536Z,1.90
2023-04-15T14:55:29.304Z,1.38
2023-04-15T14:57:57.255Z,1.10
2023-04-15T15:00:25.018Z,0.70
2023-04-15T15:02:52.745Z,1.33
2023-04-15T15:05:20.789Z,1.70
2023-04-15T15:07:49.047Z,2.40
2023-04-15T15:10:32.744Z,3.05
2023-04-15T15:13:07.024Z,2.22
2023-04-15T15:15:35.551Z,2.55
2023-04-15T15:18:03.547Z,2.30
2023-04-15T15:20:32.900Z,2.50
2023-04-15T15:23:00.840Z,2.90
2023-04-15T15:25:30.570Z,2.00
2023-04-15T15:27:59.252Z,3.00
2023-04-15T15:30:27.343Z,2.15
2023-04-15T15:32:55.008Z,2.30
2023-04-15T15:35:23.676Z,2.47
2023-04-15T15:37:51.651Z,1.90
2023-04-15T15:40:19.542Z,2.50
2023-04-15T15:42:49.902Z,2.40
2023-04-15T15:45:18.478Z,2.10
2023-04-15T15:47:46.295Z,2.30
2023-04-15T15:50:14.872Z,3.20
2023-04-15T15:52:42.682Z,1.90
2023-04-15T15:55:12.211Z,1.33
2023-04-15T15:57:39.940Z,1.27
2023-04-15T16:00:13.046Z,1.55
2023-04-15T16:05:12.280Z,1.80
2023-04-15T16:07:40.076Z,3.13
2023-04-15T16:10:08.765Z,1.63
2023-04-15T16:12:36.558Z,1.15
2023-04-15T16:15:04.831Z,1.40
2023-04-15T16:17:34.576Z,1.70
2023-04-15T16:20:05.453Z,1.70
2023-04-15T16:22:33.624Z,1.67
2023-04-15T16:25:01.683Z,2.15
2023-04-15T16:27:29.690Z,2.33
2023-04-15T16:29:57.391Z,1.83
2023-04-15T16:32:25.115Z,9.93
2023-04-15T16:34:55.036Z,2.03
2023-04-15T16:37:23.175Z,2.30
2023-04-15T16:39:50.897Z,2.83
2023-04-15T16:42:18.664Z,2.43
2023-04-15T16:44:46.516Z,2.20
2023-04-15T16:47:14.787Z,2.30
2023-04-15T16:49:42.381Z,2.50
2023-04-15T16:52:11.458Z,2.00
2023-04-15T16:54:41.373Z,2.30
2023-04-15T16:57:09.546Z,2.13
2023-04-15T16:59:38.848Z,2.25
2023-04-15T17:02:06.748Z,3.30
2023-04-15T17:04:34.899Z,3.10
2023-04-15T17:07:02.991Z,2.70
2023-04-15T17:09:31.991Z,3.13
2023-04-15T17:11:59.668Z,3.10
2023-04-15T17:14:28.606Z,3.40
2023-04-15T17:16:56.537Z,3.17
2023-04-15T17:19:24.618Z,2.90
2023-04-15T17:21:54.795Z,3.17
2023-04-15T17:24:22.937Z,4.07
2023-04-15T17:26:52.168Z,3.00
2023-04-15T17:29:20.074Z,3.63
2023-04-15T17:31:47.960Z,5.72
2023-04-15T17:34:16.198Z,11.70
2023-04-15T17:36:44.526Z,12.15
2023-04-15T17:39:14.016Z,13.75
2023-04-15T17:41:41.764Z,4.60
2023-04-15T17:44:10.808Z,3.25
2023-04-15T17:46:38.601Z,3.60
2023-04-15T17:49:07.002Z,3.42
2023-04-15T17:51:34.945Z,6.03
2023-04-15T17:54:03.055Z,5.20
2023-04-15T17:56:31.036Z,5.40
2023-04-15T17:59:00.795Z,4.43
2023-04-15T18:01:29.976Z,5.55
2023-04-15T18:03:57.762Z,6.20
2023-04-15T18:06:27.178Z,5.10
2023-04-15T18:08:56.076Z,4.30
2023-04-15T18:11:23.743Z,4.15
2023-04-15T18:13:51.380Z,3.70
2023-04-15T18:16:19.320Z,3.67
2023-04-15T18:18:49.024Z,4.28
2023-04-15T18:21:16.841Z,4.53
2023-04-15T18:23:44.723Z,3.90
2023-04-15T18:26:13.714Z,3.70
2023-04-15T18:28:41.449Z,3.30
2023-04-15T18:31:09.177Z,4.40
2023-04-15T18:33:36.924Z,4.05
2023-04-15T18:36:06.241Z,4.10
2023-04-15T18:38:33.998Z,4.80
2023-04-15T18:41:03.168Z,4.55
2023-04-15T18:43:30.862Z,7.20
2023-04-15T18:45:58.810Z,6.13
2023-04-15T18:48:26.929Z,4.80
2023-04-15T18:50:54.913Z,29.50
2023-04-15T18:53:24.021Z,6.88
2023-04-15T18:55:51.717Z,6.70
2023-04-15T18:58:19.743Z,5.90
2023-04-15T19:00:47.422Z,11.15
2023-04-15T19:03:15.099Z,18.13
2023-04-15T19:05:43.160Z,23.17
2023-04-15T19:08:11.537Z,6.85
2023-04-15T19:10:40.737Z,15.43
2023-04-15T19:13:08.403Z,38.30
2023-04-15T19:15:36.987Z,8.70
2023-04-15T19:18:10.281Z,7.90
2023-04-15T19:20:40.117Z,7.50
2023-04-15T19:23:08.168Z,7.93
2023-04-15T19:25:35.869Z,8.63
2023-04-15T19:28:05.473Z,8.63
2023-04-15T19:30:33.781Z,15.27
2023-04-15T19:33:01.583Z,11.05
2023-04-15T19:35:29.434Z,31.48
2023-04-15T19:37:57.194Z,10.10
2023-04-15T19:40:24.915Z,9.23
2023-04-15T19:42:52.886Z,8.38
2023-04-15T19:45:22.199Z,9.25
2023-04-15T19:47:50.038Z,14.85
2023-04-15T19:50:19.323Z,9.38
2023-04-15T19:52:47.045Z,8.00
2023-04-15T19:55:15.023Z,7.93
2023-04-15T19:57:43.418Z,7.60
2023-04-15T20:00:12.159Z,7.78
2023-04-15T20:02:41.418Z,8.48
2023-04-15T20:05:10.490Z,8.53
2023-04-15T20:07:39.750Z,8.03
2023-04-15T20:10:08.648Z,7.78
2023-04-15T20:12:49.545Z,8.27
2023-04-15T20:15:21.441Z,7.80
2023-04-15T20:17:51.415Z,7.80
2023-04-15T20:20:19.541Z,8.10
2023-04-15T20:22:47.320Z,8.13
2023-04-15T20:25:15.738Z,8.50
2023-04-15T20:27:43.615Z,8.63
2023-04-15T20:30:12.040Z,7.82
2023-04-15T20:32:39.695Z,8.43
2023-04-15T20:35:09.321Z,7.78
2023-04-15T20:37:40.392Z,8.27
2023-04-15T20:40:09.518Z,8.20
2023-04-15T20:42:38.158Z,8.68
2023-04-15T20:45:07.019Z,8.18
2023-04-15T20:47:34.788Z,8.10
2023-04-15T20:50:02.655Z,8.65
2023-04-15T20:52:31.702Z,8.40
2023-04-15T20:54:59.348Z,7.90
2023-04-15T20:57:28.647Z,7.80
2023-04-15T20:59:56.328Z,8.18
2023-04-15T21:02:24.405Z,8.47
2023-04-15T21:04:52.215Z,7.80
2023-04-15T21:07:20.277Z,7.45
2023-04-15T21:09:49.453Z,7.93
2023-04-15T21:12:17.200Z,7.85
2023-04-15T21:14:44.812Z,8.60
2023-04-15T21:17:12.468Z,7.82
2023-04-15T21:19:40.356Z,7.82
2023-04-15T21:22:08.316Z,8.15
2023-04-15T21:24:36.385Z,7.78
2023-04-15T21:27:05.807Z,6.82
2023-04-15T21:29:33.553Z,6.85
2023-04-15T21:32:01.289Z,7.63
2023-04-15T21:34:29.123Z,7.85
2023-04-15T21:36:57.063Z,7.55
2023-04-15T21:39:24.829Z,6.90
2023-04-15T21:41:52.716Z,7.35
2023-04-15T21:44:21.749Z,6.22
2023-04-15T21:46:49.482Z,7.68
2023-04-15T21:49:17.296Z,6.68
2023-04-15T21:51:46.372Z,6.63
2023-04-15T21:54:14.276Z,7.43
2023-04-15T21:56:42.678Z,7.13
2023-04-15T21:59:10.296Z,6.65
2023-04-15T22:01:39.758Z,7.30
2023-04-15T22:04:07.876Z,6.50
2023-04-15T22:06:36.032Z,8.25
2023-04-15T22:09:04.098Z,8.40
2023-04-15T22:11:32.340Z,7.17
2023-04-15T22:14:00.640Z,8.57
2023-04-15T22:16:29.104Z,8.00
2023-04-15T22:18:58.291Z,7.17
2023-04-15T22:21:26.753Z,7.90
2023-04-15T22:24:32.284Z,8.43
2023-04-15T22:26:42.579Z,8.40
2023-04-15T22:29:10.611Z,10.13
2023-04-15T22:31:38.400Z,7.68
2023-04-15T22:34:08.548Z,8.45
2023-04-15T22:36:36.385Z,8.02
2023-04-15T22:39:04.747Z,8.60
2023-04-15T22:41:32.836Z,9.93
2023-04-15T22:44:00.752Z,8.95
2023-04-15T22:46:28.442Z,9.88
2023-04-15T22:48:56.124Z,8.45
2023-04-15T22:51:26.980Z,9.50
2023-04-15T22:53:54.964Z,9.05
2023-04-15T22:56:23.368Z,9.18
2023-04-15T22:58:51.628Z,10.98
2023-04-15T23:01:21.313Z,9.90
2023-04-15T23:03:56.691Z,10.50
2023-04-15T23:06:34.294Z,10.10
2023-04-15T23:09:02.257Z,10.75
2023-04-15T23:11:30.260Z,10.47
2023-04-15T23:13:58.144Z,11.17
2023-04-15T23:16:26.070Z,10.37
2023-04-15T23:18:53.908Z,9.90
2023-04-15T23:21:22.458Z,11.07
2023-04-15T23:23:52.175Z,11.90
2023-04-15T23:26:19.884Z,11.77
2023-04-15T23:28:47.511Z,11.20
2023-04-15T23:31:15.196Z,12.18
2023-04-15T23:33:42.859Z,11.75
2023-04-15T23:36:10.485Z,11.50
2023-04-15T23:38:38.065Z,11.85
2023-04-15T23:41:07.401Z,12.63
2023-04-15T23:43:34.990Z,11.63
2023-04-15T23:46:02.588Z,13.57
2023-04-15T23:48:30.288Z,12.55
2023-04-15T23:50:58.119Z,12.55
2023-04-15T23:53:25.724Z,12.35
2023-04-15T23:55:53.372Z,11.88
2023-04-15T23:58:22.634Z,11.85
